CDC5922 ZUCK-ZULS
Flight info
| Callsign | CDC5922 |
|---|---|
| Flight time | N/A |
| Altitude | 39000 |
| Route | K0850S1100 DCT URGEG W80 WFX V69 KDJ W9 BIGOR W260 ENPAT DCT DUMIX DCT |
| Aircraft | A20N/M-SDE2E3FGHIRWXY/LB1 |
Departure
| Time | 2026-05-04 08:06 |
|---|---|
| Airport | Chongqing Jiangbei International Airport (ZUCK) |
Arrival
| Time | N/A |
|---|---|
| Airport | Lhasa Gonggar International Airport (ZULS) |
| Time | Latitude | Longitude | Altitude | Speed | Heading |
|---|---|---|---|---|---|
| 2026-05-04 08:00 | 29.72015 | 106.65226 | 1373 ft | 0 kts | 288° |
| 2026-05-04 08:02 | 29.72057 | 106.65080 | 1373 ft | 6 kts | 288° |
| 2026-05-04 08:02 | 29.72073 | 106.65023 | 1373 ft | 8 kts | 288° |
| 2026-05-04 08:02 | 29.72092 | 106.64957 | 1373 ft | 9 kts | 288° |
| 2026-05-04 08:03 | 29.72111 | 106.64882 | 1373 ft | 10 kts | 287° |
| 2026-05-04 08:03 | 29.72137 | 106.64773 | 1373 ft | 11 kts | 292° |
| 2026-05-04 08:03 | 29.72321 | 106.64881 | 1373 ft | 10 kts | 45° |
| 2026-05-04 08:03 | 29.72656 | 106.65030 | 1373 ft | 13 kts | 17° |
| 2026-05-04 08:04 | 29.73071 | 106.65173 | 1373 ft | 15 kts | 17° |
| 2026-05-04 08:04 | 29.73445 | 106.65302 | 1373 ft | 16 kts | 17° |
| 2026-05-04 08:04 | 29.73534 | 106.65263 | 1373 ft | 16 kts | 290° |
| 2026-05-04 08:04 | 29.73545 | 106.65140 | 1373 ft | 15 kts | 232° |
| 2026-05-04 08:05 | 29.73444 | 106.65091 | 1373 ft | 15 kts | 198° |
| 2026-05-04 08:05 | 29.73332 | 106.65050 | 1373 ft | 25 kts | 197° |
| 2026-05-04 08:05 | 29.72910 | 106.64907 | 1373 ft | 98 kts | 197° |
| 2026-05-04 08:05 | 29.72058 | 106.64610 | 1374 ft | 157 kts | 200° |
| 2026-05-04 08:06 | 29.70909 | 106.64173 | 1593 ft | 179 kts | 196° |
| 2026-05-04 08:06 | 29.69703 | 106.63799 | 2154 ft | 178 kts | 194° |
| 2026-05-04 08:06 | 29.68508 | 106.63408 | 2685 ft | 179 kts | 197° |
| 2026-05-04 08:06 | 29.67315 | 106.62983 | 3164 ft | 185 kts | 196° |
| 2026-05-04 08:08 | 29.56224 | 106.58826 | 6399 ft | 276 kts | 219° |
| 2026-05-04 08:08 | 29.55027 | 106.57115 | 7107 ft | 279 kts | 246° |
| 2026-05-04 08:10 | 29.67430 | 106.51186 | 11339 ft | 350 kts | 4° |
| 2026-05-04 08:11 | 29.69873 | 106.51405 | 11603 ft | 365 kts | 4° |
| 2026-05-04 08:11 | 29.75208 | 106.51868 | 12110 ft | 393 kts | 4° |
| 2026-05-04 08:11 | 29.77988 | 106.52106 | 12341 ft | 407 kts | 4° |
| 2026-05-04 08:12 | 29.80836 | 106.52348 | 12600 ft | 418 kts | 4° |